sensor_id;sensor_type;location;lat;lon;timestamp;pressure;altitude;pressure_sealevel;temperature;humidity
26436;BME280;15351;52.408;16.826;2024-02-16T00:00:25;101143.53;;;11.70;95.31
26436;BME280;15351;52.408;16.826;2024-02-16T00:03:30;101142.41;;;11.70;95.35
26436;BME280;15351;52.408;16.826;2024-02-16T00:06:11;101143.60;;;11.69;95.03
26436;BME280;15351;52.408;16.826;2024-02-16T00:08:42;101142.25;;;11.69;94.95
26436;BME280;15351;52.408;16.826;2024-02-16T00:11:10;101139.27;;;11.68;95.12
26436;BME280;15351;52.408;16.826;2024-02-16T00:13:40;101133.94;;;11.69;95.12
26436;BME280;15351;52.408;16.826;2024-02-16T00:16:11;101134.05;;;11.68;95.00
26436;BME280;15351;52.408;16.826;2024-02-16T00:18:44;101133.63;;;11.67;95.04
26436;BME280;15351;52.408;16.826;2024-02-16T00:21:36;101133.91;;;11.66;94.87
26436;BME280;15351;52.408;16.826;2024-02-16T00:27:42;101137.58;;;11.64;94.66
26436;BME280;15351;52.408;16.826;2024-02-16T00:30:09;101137.92;;;11.62;94.93
26436;BME280;15351;52.408;16.826;2024-02-16T00:33:01;101139.83;;;11.62;94.83
26436;BME280;15351;52.408;16.826;2024-02-16T00:38:08;101140.32;;;11.57;94.79
26436;BME280;15351;52.408;16.826;2024-02-16T00:40:52;101139.33;;;11.58;94.87
26436;BME280;15351;52.408;16.826;2024-02-16T00:43:33;101139.54;;;11.58;94.87
26436;BME280;15351;52.408;16.826;2024-02-16T00:49:00;101143.16;;;11.61;94.80
26436;BME280;15351;52.408;16.826;2024-02-16T00:51:27;101142.15;;;11.60;94.67
26436;BME280;15351;52.408;16.826;2024-02-16T00:56:47;101138.87;;;11.60;94.49
26436;BME280;15351;52.408;16.826;2024-02-16T00:59:19;101139.04;;;11.60;94.47
26436;BME280;15351;52.408;16.826;2024-02-16T01:02:11;101136.91;;;11.60;94.37
26436;BME280;15351;52.408;16.826;2024-02-16T01:13:25;101136.51;;;11.57;94.08
26436;BME280;15351;52.408;16.826;2024-02-16T01:16:34;101140.83;;;11.56;93.80
26436;BME280;15351;52.408;16.826;2024-02-16T01:19:02;101136.97;;;11.53;93.88
26436;BME280;15351;52.408;16.826;2024-02-16T01:21:34;101134.38;;;11.52;93.86
26436;BME280;15351;52.408;16.826;2024-02-16T01:24:40;101134.91;;;11.52;93.80
26436;BME280;15351;52.408;16.826;2024-02-16T01:27:11;101135.11;;;11.50;93.51
26436;BME280;15351;52.408;16.826;2024-02-16T01:30:11;101130.92;;;11.48;93.37
26436;BME280;15351;52.408;16.826;2024-02-16T01:32:42;101127.77;;;11.45;93.33
26436;BME280;15351;52.408;16.826;2024-02-16T01:35:22;101125.05;;;11.42;93.10
26436;BME280;15351;52.408;16.826;2024-02-16T01:37:53;101122.23;;;11.38;92.97
26436;BME280;15351;52.408;16.826;2024-02-16T01:40:59;101116.86;;;11.35;93.11
26436;BME280;15351;52.408;16.826;2024-02-16T01:43:46;101115.46;;;11.34;93.12
26436;BME280;15351;52.408;16.826;2024-02-16T01:46:40;101116.63;;;11.32;92.78
26436;BME280;15351;52.408;16.826;2024-02-16T01:49:07;101116.61;;;11.30;92.77
26436;BME280;15351;52.408;16.826;2024-02-16T01:51:43;101116.44;;;11.28;92.75
26436;BME280;15351;52.408;16.826;2024-02-16T01:54:42;101117.07;;;11.28;92.97
26436;BME280;15351;52.408;16.826;2024-02-16T02:00:14;101118.02;;;11.27;93.07
26436;BME280;15351;52.408;16.826;2024-02-16T02:03:03;101116.95;;;11.25;93.29
26436;BME280;15351;52.408;16.826;2024-02-16T02:05:44;101118.96;;;11.25;93.38
26436;BME280;15351;52.408;16.826;2024-02-16T02:08:23;101118.34;;;11.26;93.37
26436;BME280;15351;52.408;16.826;2024-02-16T02:10:58;101113.91;;;11.25;93.64
26436;BME280;15351;52.408;16.826;2024-02-16T02:13:55;101113.57;;;11.25;93.69
26436;BME280;15351;52.408;16.826;2024-02-16T02:16:33;101116.73;;;11.26;93.85
26436;BME280;15351;52.408;16.826;2024-02-16T02:19:34;101118.36;;;11.27;93.96
26436;BME280;15351;52.408;16.826;2024-02-16T02:22:01;101119.17;;;11.28;94.10
26436;BME280;15351;52.408;16.826;2024-02-16T02:24:28;101116.68;;;11.29;93.98
26436;BME280;15351;52.408;16.826;2024-02-16T02:27:30;101113.48;;;11.31;94.09
26436;BME280;15351;52.408;16.826;2024-02-16T02:30:18;101105.27;;;11.32;94.04
26436;BME280;15351;52.408;16.826;2024-02-16T02:33:26;101107.66;;;11.31;93.87
26436;BME280;15351;52.408;16.826;2024-02-16T02:36:38;101106.14;;;11.30;94.00
26436;BME280;15351;52.408;16.826;2024-02-16T02:39:05;101102.27;;;11.31;94.05
26436;BME280;15351;52.408;16.826;2024-02-16T02:41:45;101105.98;;;11.32;93.91
26436;BME280;15351;52.408;16.826;2024-02-16T02:49:54;101104.16;;;11.32;93.83
26436;BME280;15351;52.408;16.826;2024-02-16T02:52:48;101101.93;;;11.33;93.86
26436;BME280;15351;52.408;16.826;2024-02-16T02:55:28;101104.92;;;11.33;93.61
26436;BME280;15351;52.408;16.826;2024-02-16T02:58:13;101106.71;;;11.34;93.79
26436;BME280;15351;52.408;16.826;2024-02-16T03:01:08;101102.55;;;11.34;93.65
26436;BME280;15351;52.408;16.826;2024-02-16T03:03:47;101105.79;;;11.32;93.41
26436;BME280;15351;52.408;16.826;2024-02-16T03:09:22;101099.23;;;11.29;93.47
26436;BME280;15351;52.408;16.826;2024-02-16T03:11:52;101100.77;;;11.28;93.34
26436;BME280;15351;52.408;16.826;2024-02-16T03:14:32;101097.63;;;11.27;93.45
26436;BME280;15351;52.408;16.826;2024-02-16T03:17:02;101096.85;;;11.26;93.68
26436;BME280;15351;52.408;16.826;2024-02-16T03:19:51;101097.39;;;11.26;93.54
26436;BME280;15351;52.408;16.826;2024-02-16T03:22:43;101094.73;;;11.26;93.66
26436;BME280;15351;52.408;16.826;2024-02-16T03:30:55;101097.10;;;11.26;93.66
26436;BME280;15351;52.408;16.826;2024-02-16T03:33:51;101101.17;;;11.26;93.70
26436;BME280;15351;52.408;16.826;2024-02-16T03:36:19;101098.64;;;11.26;93.59
26436;BME280;15351;52.408;16.826;2024-02-16T03:38:59;101101.05;;;11.26;93.37
26436;BME280;15351;52.408;16.826;2024-02-16T03:41:55;101100.67;;;11.26;93.39
26436;BME280;15351;52.408;16.826;2024-02-16T03:44:29;101100.40;;;11.25;93.28
26436;BME280;15351;52.408;16.826;2024-02-16T03:50:17;101097.89;;;11.24;93.12
26436;BME280;15351;52.408;16.826;2024-02-16T03:52:44;101097.02;;;11.24;93.17
26436;BME280;15351;52.408;16.826;2024-02-16T03:55:11;101094.25;;;11.23;93.22
26436;BME280;15351;52.408;16.826;2024-02-16T03:57:40;101096.20;;;11.21;93.10
26436;BME280;15351;52.408;16.826;2024-02-16T04:00:09;101093.05;;;11.19;92.90
26436;BME280;15351;52.408;16.826;2024-02-16T04:03:12;101095.69;;;11.16;93.12
26436;BME280;15351;52.408;16.826;2024-02-16T04:05:53;101092.92;;;11.15;93.10
26436;BME280;15351;52.408;16.826;2024-02-16T04:08:30;101093.48;;;11.15;93.13
26436;BME280;15351;52.408;16.826;2024-02-16T04:11:00;101098.68;;;11.14;93.02
26436;BME280;15351;52.408;16.826;2024-02-16T04:13:35;101097.88;;;11.13;92.91
26436;BME280;15351;52.408;16.826;2024-02-16T04:16:46;101092.75;;;11.12;92.90
26436;BME280;15351;52.408;16.826;2024-02-16T04:19:13;101087.66;;;11.10;93.00
26436;BME280;15351;52.408;16.826;2024-02-16T04:21:50;101083.66;;;11.09;92.85
26436;BME280;15351;52.408;16.826;2024-02-16T04:24:20;101082.19;;;11.09;92.86
26436;BME280;15351;52.408;16.826;2024-02-16T04:27:03;101080.67;;;11.07;92.65
26436;BME280;15351;52.408;16.826;2024-02-16T04:29:57;101074.23;;;11.03;92.61
26436;BME280;15351;52.408;16.826;2024-02-16T04:32:53;101070.27;;;11.02;92.66
26436;BME280;15351;52.408;16.826;2024-02-16T04:35:38;101068.77;;;11.01;92.76
26436;BME280;15351;52.408;16.826;2024-02-16T04:38:05;101064.44;;;11.01;92.57
26436;BME280;15351;52.408;16.826;2024-02-16T04:40:34;101064.84;;;10.99;92.45
26436;BME280;15351;52.408;16.826;2024-02-16T04:43:03;101064.88;;;10.97;92.56
26436;BME280;15351;52.408;16.826;2024-02-16T04:45:30;101060.56;;;10.95;92.33
26436;BME280;15351;52.408;16.826;2024-02-16T04:48:02;101066.01;;;10.93;92.29
26436;BME280;15351;52.408;16.826;2024-02-16T04:50:32;101062.50;;;10.92;92.29
26436;BME280;15351;52.408;16.826;2024-02-16T04:53:11;101061.21;;;10.91;92.27
26436;BME280;15351;52.408;16.826;2024-02-16T04:56:06;101065.16;;;10.89;92.26
26436;BME280;15351;52.408;16.826;2024-02-16T04:58:41;101064.41;;;10.88;92.20
26436;BME280;15351;52.408;16.826;2024-02-16T05:01:18;101065.59;;;10.85;92.09
26436;BME280;15351;52.408;16.826;2024-02-16T05:03:55;101065.41;;;10.84;91.88
26436;BME280;15351;52.408;16.826;2024-02-16T05:06:38;101062.95;;;10.82;91.86
26436;BME280;15351;52.408;16.826;2024-02-16T05:09:16;101057.77;;;10.80;91.89
26436;BME280;15351;52.408;16.826;2024-02-16T05:12:10;101052.74;;;10.78;92.07
26436;BME280;15351;52.408;16.826;2024-02-16T05:14:57;101050.41;;;10.76;91.68
26436;BME280;15351;52.408;16.826;2024-02-16T05:17:27;101054.90;;;10.75;91.75
26436;BME280;15351;52.408;16.826;2024-02-16T05:19:57;101047.70;;;10.71;91.63
26436;BME280;15351;52.408;16.826;2024-02-16T05:22:49;101045.41;;;10.70;91.49
26436;BME280;15351;52.408;16.826;2024-02-16T05:25:20;101045.91;;;10.68;91.49
26436;BME280;15351;52.408;16.826;2024-02-16T05:27:49;101042.59;;;10.66;91.42
26436;BME280;15351;52.408;16.826;2024-02-16T05:30:18;101045.99;;;10.64;91.57
26436;BME280;15351;52.408;16.826;2024-02-16T05:33:00;101043.32;;;10.64;91.33
26436;BME280;15351;52.408;16.826;2024-02-16T05:35:30;101046.40;;;10.62;91.44
26436;BME280;15351;52.408;16.826;2024-02-16T05:38:00;101045.52;;;10.60;91.38
26436;BME280;15351;52.408;16.826;2024-02-16T05:40:42;101045.27;;;10.58;91.37
26436;BME280;15351;52.408;16.826;2024-02-16T05:43:22;101047.55;;;10.55;91.27
26436;BME280;15351;52.408;16.826;2024-02-16T05:45:50;101052.00;;;10.54;91.29
26436;BME280;15351;52.408;16.826;2024-02-16T05:48:22;101055.86;;;10.51;91.05
26436;BME280;15351;52.408;16.826;2024-02-16T05:51:05;101062.20;;;10.51;91.12
26436;BME280;15351;52.408;16.826;2024-02-16T05:53:43;101061.11;;;10.49;91.03
26436;BME280;15351;52.408;16.826;2024-02-16T05:56:12;101065.11;;;10.47;91.00
26436;BME280;15351;52.408;16.826;2024-02-16T05:58:52;101070.63;;;10.44;90.94
26436;BME280;15351;52.408;16.826;2024-02-16T06:01:34;101073.05;;;10.40;90.66
26436;BME280;15351;52.408;16.826;2024-02-16T06:04:07;101074.95;;;10.37;90.69
26436;BME280;15351;52.408;16.826;2024-02-16T06:06:35;101075.69;;;10.36;90.24
26436;BME280;15351;52.408;16.826;2024-02-16T06:09:06;101076.66;;;10.32;90.06
26436;BME280;15351;52.408;16.826;2024-02-16T06:11:36;101076.62;;;10.27;89.89
26436;BME280;15351;52.408;16.826;2024-02-16T06:14:07;101074.61;;;10.24;89.74
26436;BME280;15351;52.408;16.826;2024-02-16T06:16:55;101078.90;;;10.19;89.63
26436;BME280;15351;52.408;16.826;2024-02-16T06:19:22;101073.98;;;10.15;89.66
26436;BME280;15351;52.408;16.826;2024-02-16T06:22:06;101069.42;;;10.12;89.51
26436;BME280;15351;52.408;16.826;2024-02-16T06:24:46;101070.01;;;10.12;89.65
26436;BME280;15351;52.408;16.826;2024-02-16T06:27:13;101067.96;;;10.09;89.65
26436;BME280;15351;52.408;16.826;2024-02-16T06:30:08;101075.66;;;10.06;89.79
26436;BME280;15351;52.408;16.826;2024-02-16T06:33:09;101079.87;;;10.05;89.92
26436;BME280;15351;52.408;16.826;2024-02-16T06:35:53;101090.13;;;10.05;90.07
26436;BME280;15351;52.408;16.826;2024-02-16T06:38:42;101091.30;;;10.06;90.08
26436;BME280;15351;52.408;16.826;2024-02-16T06:41:48;101089.77;;;10.03;90.09
26436;BME280;15351;52.408;16.826;2024-02-16T06:44:19;101092.70;;;10.01;89.96
26436;BME280;15351;52.408;16.826;2024-02-16T06:47:26;101089.73;;;10.02;90.38
26436;BME280;15351;52.408;16.826;2024-02-16T06:50:08;101089.53;;;10.04;90.40
26436;BME280;15351;52.408;16.826;2024-02-16T06:52:47;101085.21;;;10.04;90.48
26436;BME280;15351;52.408;16.826;2024-02-16T06:55:34;101086.68;;;10.05;90.74
26436;BME280;15351;52.408;16.826;2024-02-16T06:58:08;101085.34;;;10.06;90.87
26436;BME280;15351;52.408;16.826;2024-02-16T07:00:47;101086.39;;;10.08;91.07
26436;BME280;15351;52.408;16.826;2024-02-16T07:03:34;101081.11;;;10.10;91.08
26436;BME280;15351;52.408;16.826;2024-02-16T07:06:13;101080.19;;;10.12;91.26
26436;BME280;15351;52.408;16.826;2024-02-16T07:09:13;101080.70;;;10.14;91.49
26436;BME280;15351;52.408;16.826;2024-02-16T07:11:41;101081.77;;;10.14;91.40
26436;BME280;15351;52.408;16.826;2024-02-16T07:14:34;101080.32;;;10.16;91.67
26436;BME280;15351;52.408;16.826;2024-02-16T07:17:27;101076.94;;;10.17;91.56
26436;BME280;15351;52.408;16.826;2024-02-16T07:19:53;101074.77;;;10.19;91.84
26436;BME280;15351;52.408;16.826;2024-02-16T07:22:20;101065.88;;;10.22;91.81
26436;BME280;15351;52.408;16.826;2024-02-16T07:24:47;101064.00;;;10.24;92.00
26436;BME280;15351;52.408;16.826;2024-02-16T07:27:15;101061.02;;;10.27;92.02
26436;BME280;15351;52.408;16.826;2024-02-16T07:29:44;101054.59;;;10.30;91.88
26436;BME280;15351;52.408;16.826;2024-02-16T07:32:11;101050.86;;;10.31;92.04
26436;BME280;15351;52.408;16.826;2024-02-16T07:34:38;101056.51;;;10.36;92.04
26436;BME280;15351;52.408;16.826;2024-02-16T07:37:07;101056.25;;;10.37;92.15
26436;BME280;15351;52.408;16.826;2024-02-16T07:39:35;101055.95;;;10.40;92.08
26436;BME280;15351;52.408;16.826;2024-02-16T07:44:46;101053.02;;;10.47;91.96
26436;BME280;15351;52.408;16.826;2024-02-16T07:47:26;101053.60;;;10.50;91.91
26436;BME280;15351;52.408;16.826;2024-02-16T07:49:53;101054.11;;;10.54;92.05
26436;BME280;15351;52.408;16.826;2024-02-16T07:52:20;101052.89;;;10.58;91.99
26436;BME280;15351;52.408;16.826;2024-02-16T07:54:49;101053.72;;;10.62;91.75
26436;BME280;15351;52.408;16.826;2024-02-16T07:57:17;101051.98;;;10.67;91.78
26436;BME280;15351;52.408;16.826;2024-02-16T07:59:44;101048.95;;;10.72;91.89
26436;BME280;15351;52.408;16.826;2024-02-16T08:02:12;101043.66;;;10.76;91.82
26436;BME280;15351;52.408;16.826;2024-02-16T08:04:46;101041.06;;;10.80;91.81
26436;BME280;15351;52.408;16.826;2024-02-16T08:07:14;101042.95;;;10.85;91.64
26436;BME280;15351;52.408;16.826;2024-02-16T08:09:48;101040.67;;;10.89;91.61
26436;BME280;15351;52.408;16.826;2024-02-16T08:12:42;101040.23;;;10.95;91.57
26436;BME280;15351;52.408;16.826;2024-02-16T08:15:16;101038.52;;;11.01;91.57
26436;BME280;15351;52.408;16.826;2024-02-16T08:17:49;101033.84;;;11.05;91.29
26436;BME280;15351;52.408;16.826;2024-02-16T08:20:18;101030.49;;;11.11;91.15
26436;BME280;15351;52.408;16.826;2024-02-16T08:23:05;101030.37;;;11.19;91.15
26436;BME280;15351;52.408;16.826;2024-02-16T08:25:57;101028.85;;;11.28;91.19
26436;BME280;15351;52.408;16.826;2024-02-16T08:28:39;101033.58;;;11.40;91.30
26436;BME280;15351;52.408;16.826;2024-02-16T08:31:25;101032.59;;;11.63;91.16
26436;BME280;15351;52.408;16.826;2024-02-16T08:34:18;101030.23;;;12.16;91.01
26436;BME280;15351;52.408;16.826;2024-02-16T08:36:57;101024.85;;;13.56;90.46
26436;BME280;15351;52.408;16.826;2024-02-16T08:39:48;101009.88;;;16.01;86.77
26436;BME280;15351;52.408;16.826;2024-02-16T08:42:23;101011.30;;;18.41;81.08
26436;BME280;15351;52.408;16.826;2024-02-16T08:44:58;101000.30;;;20.37;75.00
26436;BME280;15351;52.408;16.826;2024-02-16T08:47:34;101001.45;;;21.95;69.70
26436;BME280;15351;52.408;16.826;2024-02-16T08:50:14;100998.46;;;23.30;65.06
26436;BME280;15351;52.408;16.826;2024-02-16T08:52:56;100989.90;;;24.44;61.27
26436;BME280;15351;52.408;16.826;2024-02-16T08:55:44;100991.44;;;25.30;58.05
26436;BME280;15351;52.408;16.826;2024-02-16T08:58:14;100999.06;;;25.67;55.81
26436;BME280;15351;52.408;16.826;2024-02-16T09:00:43;100998.64;;;25.73;54.05
26436;BME280;15351;52.408;16.826;2024-02-16T09:06:04;100992.92;;;24.59;52.37
26436;BME280;15351;52.408;16.826;2024-02-16T09:08:39;100995.73;;;23.95;52.05
26436;BME280;15351;52.408;16.826;2024-02-16T09:11:13;100997.92;;;23.52;51.49
26436;BME280;15351;52.408;16.826;2024-02-16T09:13:45;100996.68;;;23.12;51.51
26436;BME280;15351;52.408;16.826;2024-02-16T09:16:25;100994.48;;;22.91;51.61
26436;BME280;15351;52.408;16.826;2024-02-16T09:19:26;100998.32;;;22.74;51.30
26436;BME280;15351;52.408;16.826;2024-02-16T09:22:14;100995.57;;;22.47;51.21
26436;BME280;15351;52.408;16.826;2024-02-16T09:25:02;100995.30;;;22.35;51.26
26436;BME280;15351;52.408;16.826;2024-02-16T09:27:42;100993.41;;;22.32;51.24
26436;BME280;15351;52.408;16.826;2024-02-16T09:30:17;100995.80;;;22.29;50.83
26436;BME280;15351;52.408;16.826;2024-02-16T09:32:50;100998.52;;;22.33;50.73
26436;BME280;15351;52.408;16.826;2024-02-16T09:35:19;101003.70;;;22.22;50.56
26436;BME280;15351;52.408;16.826;2024-02-16T09:37:51;100998.46;;;22.20;50.84
26436;BME280;15351;52.408;16.826;2024-02-16T09:40:27;101003.41;;;22.27;50.63
26436;BME280;15351;52.408;16.826;2024-02-16T09:46:22;100996.56;;;22.08;50.90
26436;BME280;15351;52.408;16.826;2024-02-16T09:49:11;100990.08;;;22.10;50.67
26436;BME280;15351;52.408;16.826;2024-02-16T09:51:47;100990.89;;;22.11;50.55
26436;BME280;15351;52.408;16.826;2024-02-16T09:54:37;100988.40;;;22.09;50.54
26436;BME280;15351;52.408;16.826;2024-02-16T09:57:29;100988.52;;;22.05;50.39
26436;BME280;15351;52.408;16.826;2024-02-16T10:00:02;100985.45;;;22.02;50.10
26436;BME280;15351;52.408;16.826;2024-02-16T10:02:42;100983.43;;;21.95;49.84
26436;BME280;15351;52.408;16.826;2024-02-16T10:05:34;100982.10;;;21.75;49.60
26436;BME280;15351;52.408;16.826;2024-02-16T10:08:22;100977.91;;;21.58;49.67
26436;BME280;15351;52.408;16.826;2024-02-16T10:11:14;100982.41;;;21.45;50.00
26436;BME280;15351;52.408;16.826;2024-02-16T10:13:59;100982.66;;;21.39;50.14
26436;BME280;15351;52.408;16.826;2024-02-16T10:16:36;100975.44;;;21.36;50.55
26436;BME280;15351;52.408;16.826;2024-02-16T10:19:22;100970.23;;;21.31;50.50
26436;BME280;15351;52.408;16.826;2024-02-16T10:21:54;100961.32;;;21.26;50.58
26436;BME280;15351;52.408;16.826;2024-02-16T10:25:06;100957.20;;;21.22;50.76
26436;BME280;15351;52.408;16.826;2024-02-16T10:27:47;100957.02;;;21.22;50.73
26436;BME280;15351;52.408;16.826;2024-02-16T10:30:49;100959.02;;;21.16;50.52
26436;BME280;15351;52.408;16.826;2024-02-16T10:33:31;100959.41;;;20.95;49.84
26436;BME280;15351;52.408;16.826;2024-02-16T10:36:25;100952.34;;;20.66;49.95
26436;BME280;15351;52.408;16.826;2024-02-16T10:39:24;100948.52;;;20.42;50.13
26436;BME280;15351;52.408;16.826;2024-02-16T10:42:06;100951.73;;;20.18;50.32
26436;BME280;15351;52.408;16.826;2024-02-16T10:44:36;100950.17;;;19.92;50.43
26436;BME280;15351;52.408;16.826;2024-02-16T10:47:10;100951.54;;;19.64;50.94
26436;BME280;15351;52.408;16.826;2024-02-16T10:52:41;100944.80;;;19.06;51.52
26436;BME280;15351;52.408;16.826;2024-02-16T10:55:09;100948.63;;;18.87;52.15
26436;BME280;15351;52.408;16.826;2024-02-16T10:58:12;100949.38;;;18.59;52.36
26436;BME280;15351;52.408;16.826;2024-02-16T11:00:48;100945.34;;;18.38;52.80
26436;BME280;15351;52.408;16.826;2024-02-16T11:03:24;100949.15;;;18.22;53.49
26436;BME280;15351;52.408;16.826;2024-02-16T11:05:53;100945.02;;;18.09;54.04
26436;BME280;15351;52.408;16.826;2024-02-16T11:08:25;100944.60;;;17.96;54.42
26436;BME280;15351;52.408;16.826;2024-02-16T11:11:05;100942.48;;;17.86;54.76
26436;BME280;15351;52.408;16.826;2024-02-16T11:13:37;100946.11;;;17.76;54.90
26436;BME280;15351;52.408;16.826;2024-02-16T11:16:20;100946.48;;;17.65;55.19
26436;BME280;15351;52.408;16.826;2024-02-16T11:18:47;100946.89;;;17.54;55.33
26436;BME280;15351;52.408;16.826;2024-02-16T11:22:09;100944.29;;;17.42;55.73
26436;BME280;15351;52.408;16.826;2024-02-16T11:24:55;100933.39;;;17.31;56.08
26436;BME280;15351;52.408;16.826;2024-02-16T11:27:27;100924.81;;;17.23;56.29
26436;BME280;15351;52.408;16.826;2024-02-16T11:30:13;100919.91;;;17.14;56.83
26436;BME280;15351;52.408;16.826;2024-02-16T11:32:41;100912.02;;;17.09;57.50
26436;BME280;15351;52.408;16.826;2024-02-16T11:35:26;100911.48;;;17.04;57.37
26436;BME280;15351;52.408;16.826;2024-02-16T11:38:13;100909.17;;;16.98;57.66
26436;BME280;15351;52.408;16.826;2024-02-16T11:40:57;100906.35;;;16.93;57.90
26436;BME280;15351;52.408;16.826;2024-02-16T11:43:24;100905.77;;;16.88;58.19
26436;BME280;15351;52.408;16.826;2024-02-16T11:45:58;100905.66;;;16.83;57.97
26436;BME280;15351;52.408;16.826;2024-02-16T11:49:06;100905.06;;;16.77;57.89
26436;BME280;15351;52.408;16.826;2024-02-16T11:51:38;100899.81;;;16.70;57.88
26436;BME280;15351;52.408;16.826;2024-02-16T11:54:11;100900.81;;;16.65;57.99
26436;BME280;15351;52.408;16.826;2024-02-16T11:56:38;100898.35;;;16.59;57.97
26436;BME280;15351;52.408;16.826;2024-02-16T11:59:24;100896.84;;;16.50;58.32
26436;BME280;15351;52.408;16.826;2024-02-16T12:01:57;100895.85;;;16.45;58.79
26436;BME280;15351;52.408;16.826;2024-02-16T12:04:28;100896.11;;;16.41;58.90
26436;BME280;15351;52.408;16.826;2024-02-16T12:07:09;100896.52;;;16.34;59.33
26436;BME280;15351;52.408;16.826;2024-02-16T12:09:37;100892.83;;;16.29;59.79
26436;BME280;15351;52.408;16.826;2024-02-16T12:12:32;100891.32;;;16.27;60.15
26436;BME280;15351;52.408;16.826;2024-02-16T12:15:10;100885.81;;;16.23;60.14
26436;BME280;15351;52.408;16.826;2024-02-16T12:17:39;100884.08;;;16.21;60.21
26436;BME280;15351;52.408;16.826;2024-02-16T12:20:34;100877.58;;;16.17;60.31
26436;BME280;15351;52.408;16.826;2024-02-16T12:23:17;100873.46;;;16.15;60.73
26436;BME280;15351;52.408;16.826;2024-02-16T12:25:45;100868.23;;;16.15;60.59
26436;BME280;15351;52.408;16.826;2024-02-16T12:28:12;100867.96;;;16.13;60.69
26436;BME280;15351;52.408;16.826;2024-02-16T12:30:39;100874.08;;;16.11;60.17
26436;BME280;15351;52.408;16.826;2024-02-16T12:33:08;100868.60;;;16.07;60.51
26436;BME280;15351;52.408;16.826;2024-02-16T12:35:52;100868.14;;;16.05;60.62
26436;BME280;15351;52.408;16.826;2024-02-16T12:38:23;100868.05;;;16.01;60.61
26436;BME280;15351;52.408;16.826;2024-02-16T12:40:52;100862.65;;;16.00;60.67
26436;BME280;15351;52.408;16.826;2024-02-16T12:43:18;100862.22;;;15.98;60.55
26436;BME280;15351;52.408;16.826;2024-02-16T12:45:50;100857.42;;;15.93;60.63
26436;BME280;15351;52.408;16.826;2024-02-16T12:48:18;100855.27;;;15.87;60.88
26436;BME280;15351;52.408;16.826;2024-02-16T12:50:48;100855.17;;;15.87;61.35
26436;BME280;15351;52.408;16.826;2024-02-16T12:56:08;100855.71;;;15.85;61.64
26436;BME280;15351;52.408;16.826;2024-02-16T12:59:06;100857.83;;;15.83;61.58
26436;BME280;15351;52.408;16.826;2024-02-16T13:01:36;100858.42;;;15.80;61.46
26436;BME280;15351;52.408;16.826;2024-02-16T13:04:09;100858.90;;;15.78;61.45
26436;BME280;15351;52.408;16.826;2024-02-16T13:09:44;100851.81;;;15.76;61.89
26436;BME280;15351;52.408;16.826;2024-02-16T13:12:38;100845.31;;;15.79;62.31
26436;BME280;15351;52.408;16.826;2024-02-16T13:15:40;100845.73;;;15.80;62.17
26436;BME280;15351;52.408;16.826;2024-02-16T13:18:09;100847.60;;;15.79;62.16
26436;BME280;15351;52.408;16.826;2024-02-16T13:20:41;100845.98;;;15.79;62.27
26436;BME280;15351;52.408;16.826;2024-02-16T13:23:13;100844.86;;;15.79;62.26
26436;BME280;15351;52.408;16.826;2024-02-16T13:25:39;100836.21;;;15.78;62.27
26436;BME280;15351;52.408;16.826;2024-02-16T13:28:32;100833.57;;;15.76;62.35
26436;BME280;15351;52.408;16.826;2024-02-16T13:31:06;100828.19;;;15.72;62.28
26436;BME280;15351;52.408;16.826;2024-02-16T13:34:06;100826.63;;;15.69;62.35
26436;BME280;15351;52.408;16.826;2024-02-16T13:36:53;100827.88;;;15.66;62.51
26436;BME280;15351;52.408;16.826;2024-02-16T13:39:19;100827.59;;;15.61;62.68
26436;BME280;15351;52.408;16.826;2024-02-16T13:41:50;100824.30;;;15.56;62.91
26436;BME280;15351;52.408;16.826;2024-02-16T13:44:27;100823.52;;;15.52;63.28
26436;BME280;15351;52.408;16.826;2024-02-16T13:47:23;100827.70;;;15.51;63.46
26436;BME280;15351;52.408;16.826;2024-02-16T13:50:12;100829.57;;;15.48;63.63
26436;BME280;15351;52.408;16.826;2024-02-16T13:52:42;100832.61;;;15.47;63.77
26436;BME280;15351;52.408;16.826;2024-02-16T13:55:12;100829.20;;;15.48;63.80
26436;BME280;15351;52.408;16.826;2024-02-16T13:57:55;100830.84;;;15.49;63.89
26436;BME280;15351;52.408;16.826;2024-02-16T14:00:28;100827.66;;;15.48;63.99
26436;BME280;15351;52.408;16.826;2024-02-16T14:02:57;100832.63;;;15.48;64.02
26436;BME280;15351;52.408;16.826;2024-02-16T14:05:48;100831.78;;;15.47;64.35
26436;BME280;15351;52.408;16.826;2024-02-16T14:08:35;100830.44;;;15.46;64.18
26436;BME280;15351;52.408;16.826;2024-02-16T14:11:44;100828.61;;;15.43;64.30
26436;BME280;15351;52.408;16.826;2024-02-16T14:14:29;100829.39;;;15.41;64.40
26436;BME280;15351;52.408;16.826;2024-02-16T14:16:56;100831.55;;;15.38;64.47
26436;BME280;15351;52.408;16.826;2024-02-16T14:22:50;100834.71;;;15.36;64.67
26436;BME280;15351;52.408;16.826;2024-02-16T14:25:35;100830.30;;;15.34;64.96
26436;BME280;15351;52.408;16.826;2024-02-16T14:28:06;100826.07;;;15.33;64.84
26436;BME280;15351;52.408;16.826;2024-02-16T14:30:37;100819.37;;;15.33;64.95
26436;BME280;15351;52.408;16.826;2024-02-16T14:33:12;100820.52;;;15.33;65.25
26436;BME280;15351;52.408;16.826;2024-02-16T14:35:41;100818.63;;;15.32;65.35
26436;BME280;15351;52.408;16.826;2024-02-16T14:38:07;100816.50;;;15.31;65.27
26436;BME280;15351;52.408;16.826;2024-02-16T14:40:35;100815.15;;;15.31;65.23
26436;BME280;15351;52.408;16.826;2024-02-16T14:43:02;100806.05;;;15.28;65.14